createdAt,value
2022-11-05T12:10:12.796Z,10.75
2022-11-05T12:13:20.914Z,10.18
2022-11-05T12:15:56.759Z,8.98
2022-11-05T12:18:48.457Z,6.10
2022-11-05T12:21:51.522Z,11.45
2022-11-05T12:24:39.829Z,7.03
2022-11-05T12:27:47.109Z,24.63
2022-11-05T12:30:19.962Z,21.15
2022-11-05T12:32:50.802Z,13.00
2022-11-05T12:35:48.233Z,16.50
2022-11-05T12:38:32.531Z,8.63
2022-11-05T12:41:42.066Z,7.25
2022-11-05T12:44:19.967Z,5.78
2022-11-05T12:47:16.871Z,4.70
2022-11-05T12:49:52.356Z,5.43
2022-11-05T12:53:09.806Z,4.35
2022-11-05T12:55:48.082Z,14.25
2022-11-05T12:58:31.613Z,8.65
2022-11-05T13:01:03.816Z,9.45
2022-11-05T13:03:52.693Z,5.68
2022-11-05T13:06:25.134Z,9.65
2022-11-05T13:09:14.829Z,7.80
2022-11-05T13:11:49.702Z,7.57
2022-11-05T13:14:21.654Z,15.82
2022-11-05T13:17:03.948Z,13.02
2022-11-05T13:19:38.012Z,16.90
2022-11-05T13:22:21.147Z,19.02
2022-11-05T13:24:57.769Z,19.70
2022-11-05T13:27:42.815Z,13.07
2022-11-05T13:30:16.919Z,9.88
2022-11-05T13:32:49.739Z,8.90
2022-11-05T13:35:25.934Z,25.02
2022-11-05T13:40:55.978Z,21.65
2022-11-05T13:43:29.058Z,13.13
2022-11-05T13:46:02.950Z,32.00
2022-11-05T13:48:39.775Z,33.83
2022-11-05T13:51:12.137Z,25.15
2022-11-05T13:53:47.591Z,17.02
2022-11-05T13:56:29.245Z,10.23
2022-11-05T13:59:10.794Z,9.07
2022-11-05T14:01:58.594Z,12.77
2022-11-05T14:04:25.852Z,8.10
2022-11-05T14:06:52.905Z,7.43
2022-11-05T14:09:26.011Z,8.38
2022-11-05T14:11:57.088Z,28.77
2022-11-05T14:14:30.450Z,35.95
2022-11-05T14:17:09.882Z,32.60
2022-11-05T14:19:51.820Z,48.95
2022-11-05T14:22:33.914Z,34.50
2022-11-05T14:25:02.527Z,31.67
2022-11-05T14:27:29.053Z,36.55
2022-11-05T14:29:56.083Z,24.40
2022-11-05T14:32:25.609Z,13.07
2022-11-05T14:35:34.410Z,16.58
2022-11-05T14:38:01.233Z,17.30
2022-11-05T14:40:37.491Z,17.10
2022-11-05T14:45:39.376Z,23.58
2022-11-05T14:48:25.327Z,25.08
2022-11-05T14:50:52.235Z,28.67
2022-11-05T14:53:32.214Z,25.48
2022-11-05T14:56:04.479Z,6.57
2022-11-05T14:58:39.978Z,7.63
2022-11-05T15:01:10.016Z,8.32
2022-11-05T15:03:45.449Z,6.93
2022-11-05T15:06:33.715Z,9.70
2022-11-05T15:09:03.539Z,4.25
2022-11-05T15:11:35.876Z,6.35
2022-11-05T15:15:00.813Z,5.40
2022-11-05T15:17:58.991Z,6.82
2022-11-05T15:20:49.790Z,18.02
2022-11-05T15:23:21.662Z,24.00
2022-11-05T15:26:15.215Z,17.25
2022-11-05T15:28:48.793Z,14.10
2022-11-05T15:31:15.402Z,14.32
2022-11-05T15:33:47.675Z,10.43
2022-11-05T15:36:21.108Z,10.68
2022-11-05T15:39:08.104Z,12.73
2022-11-05T15:41:35.770Z,10.63
2022-11-05T15:44:02.835Z,12.77
2022-11-05T15:46:29.973Z,13.68
2022-11-05T15:49:07.102Z,12.73
2022-11-05T15:51:35.615Z,14.65
2022-11-05T15:54:29.053Z,13.25
2022-11-05T15:57:00.056Z,14.40
2022-11-05T15:59:29.291Z,12.48
2022-11-05T16:02:28.189Z,14.05
2022-11-05T16:04:55.344Z,13.07
2022-11-05T16:07:22.235Z,11.73
2022-11-05T16:09:58.141Z,16.55
2022-11-05T16:12:31.429Z,8.57
2022-11-05T16:15:10.281Z,11.18
2022-11-05T16:17:41.990Z,9.55
2022-11-05T16:20:34.090Z,8.48
2022-11-05T16:23:22.475Z,8.35
2022-11-05T16:25:54.759Z,6.68
2022-11-05T16:28:24.403Z,8.40
2022-11-05T16:30:54.877Z,7.13
2022-11-05T16:33:22.101Z,8.60
2022-11-05T16:35:51.573Z,7.15
2022-11-05T16:38:20.878Z,7.88
2022-11-05T16:40:47.638Z,6.72
2022-11-05T16:43:23.502Z,8.18
2022-11-05T16:45:54.190Z,7.40
2022-11-05T16:48:20.789Z,10.30
2022-11-05T16:50:47.467Z,5.82
2022-11-05T16:53:14.211Z,5.97
2022-11-05T16:55:42.617Z,5.80
2022-11-05T16:58:20.704Z,8.23
2022-11-05T17:00:49.239Z,7.20
2022-11-05T17:03:15.871Z,7.05
2022-11-05T17:05:42.954Z,5.20
2022-11-05T17:08:12.575Z,5.60
2022-11-05T17:10:41.974Z,10.00
2022-11-05T17:13:14.398Z,5.65
2022-11-05T17:15:43.836Z,5.78
2022-11-05T17:18:15.441Z,5.57
2022-11-05T17:20:57.824Z,5.18
2022-11-05T17:23:26.849Z,4.75
2022-11-05T17:25:57.284Z,4.53
2022-11-05T17:28:23.941Z,5.18
2022-11-05T17:30:56.323Z,4.55
2022-11-05T17:33:25.074Z,6.30
2022-11-05T17:35:52.545Z,4.13
2022-11-05T17:38:19.849Z,5.70
2022-11-05T17:40:46.549Z,4.60
2022-11-05T17:43:13.736Z,5.20
2022-11-05T17:45:47.940Z,4.65
2022-11-05T17:48:15.546Z,5.35
2022-11-05T17:50:44.326Z,5.95
2022-11-05T17:53:17.699Z,6.25
2022-11-05T17:55:45.882Z,10.32
2022-11-05T17:58:12.934Z,13.60
2022-11-05T18:00:40.064Z,11.57
2022-11-05T18:03:06.941Z,12.40
2022-11-05T18:05:34.738Z,8.23
2022-11-05T18:08:01.754Z,7.43
2022-11-05T18:10:30.103Z,6.22
2022-11-05T18:12:56.743Z,9.18
2022-11-05T18:15:24.228Z,6.75
2022-11-05T18:17:50.846Z,9.07
2022-11-05T18:20:19.438Z,7.88
2022-11-05T18:22:49.371Z,7.93
2022-11-05T18:25:16.810Z,6.40
2022-11-05T18:27:44.047Z,5.45
2022-11-05T18:30:15.627Z,6.85
2022-11-05T18:32:44.341Z,5.60
2022-11-05T18:35:11.911Z,4.22
2022-11-05T18:37:39.728Z,4.20
2022-11-05T18:40:07.527Z,4.50
2022-11-05T18:42:34.134Z,5.88
2022-11-05T18:45:00.893Z,8.45
2022-11-05T18:47:27.624Z,5.30
2022-11-05T18:49:54.252Z,4.97
2022-11-05T18:52:21.646Z,5.32
2022-11-05T18:54:48.198Z,5.53
2022-11-05T18:57:14.760Z,6.05
2022-11-05T18:59:46.766Z,8.48
2022-11-05T19:02:14.219Z,3.83
2022-11-05T19:04:55.098Z,4.28
2022-11-05T19:07:29.309Z,5.32
2022-11-05T19:09:56.846Z,4.68
2022-11-05T19:12:23.449Z,4.10
2022-11-05T19:14:50.160Z,4.22
2022-11-05T19:17:16.753Z,4.07
2022-11-05T19:19:43.325Z,5.65
2022-11-05T19:22:11.399Z,3.28
2022-11-05T19:24:37.985Z,5.75
2022-11-05T19:27:04.579Z,4.63
2022-11-05T19:29:31.194Z,5.43
2022-11-05T19:31:57.766Z,4.15
2022-11-05T19:34:24.389Z,3.88
2022-11-05T19:36:51.019Z,4.75
2022-11-05T19:39:17.587Z,4.30
2022-11-05T19:41:44.217Z,8.02
2022-11-05T19:44:11.429Z,5.15
2022-11-05T19:46:38.548Z,4.70
2022-11-05T19:49:05.236Z,3.60
2022-11-05T19:51:34.424Z,4.30
2022-11-05T19:54:02.841Z,5.05
2022-11-05T19:56:31.784Z,5.65
2022-11-05T19:59:00.439Z,7.00
2022-11-05T20:01:28.768Z,4.38
2022-11-05T20:03:57.178Z,4.82
2022-11-05T20:06:28.834Z,5.57
2022-11-05T20:11:50.038Z,3.90
2022-11-05T20:14:17.087Z,6.03
2022-11-05T20:16:45.036Z,4.50
2022-11-05T20:19:15.954Z,3.83
2022-11-05T20:21:43.241Z,4.05
2022-11-05T20:24:12.595Z,4.80
2022-11-05T20:26:39.788Z,2.70
2022-11-05T20:29:13.071Z,5.88
2022-11-05T20:31:39.692Z,4.53
2022-11-05T20:34:07.461Z,5.55
2022-11-05T20:36:34.035Z,5.85
2022-11-05T20:39:02.840Z,5.20
2022-11-05T20:41:30.824Z,5.90
2022-11-05T20:43:57.766Z,5.10
2022-11-05T20:46:25.250Z,3.22
2022-11-05T20:48:52.527Z,4.25
2022-11-05T20:51:25.367Z,9.07
2022-11-05T20:54:00.098Z,8.90
2022-11-05T20:56:32.614Z,7.53
2022-11-05T20:59:01.197Z,7.55
2022-11-05T21:01:30.767Z,6.78
2022-11-05T21:03:57.764Z,11.43
2022-11-05T21:06:25.232Z,6.40
2022-11-05T21:08:53.888Z,4.25
2022-11-05T21:11:21.869Z,4.25
2022-11-05T21:13:48.898Z,5.22
2022-11-05T21:16:18.694Z,5.97
2022-11-05T21:18:46.731Z,5.50
2022-11-05T21:21:18.353Z,3.67
2022-11-05T21:23:45.117Z,3.15
2022-11-05T21:26:13.353Z,2.55
2022-11-05T21:28:41.678Z,2.47
2022-11-05T21:31:09.034Z,3.72
2022-11-05T21:33:35.809Z,2.35
2022-11-05T21:36:12.412Z,2.15
2022-11-05T21:38:40.054Z,3.10
2022-11-05T21:41:08.261Z,2.22
2022-11-05T21:43:35.778Z,2.38
2022-11-05T21:46:04.138Z,1.95
2022-11-05T21:48:30.880Z,4.55
2022-11-05T21:54:36.663Z,2.83
2022-11-05T21:57:21.973Z,1.90
2022-11-05T21:59:49.618Z,3.13
2022-11-05T22:02:28.528Z,3.28
2022-11-05T22:04:58.303Z,3.55
2022-11-05T22:07:28.043Z,6.20
2022-11-05T22:09:54.947Z,3.47
2022-11-05T22:12:22.267Z,2.95
2022-11-05T22:14:48.907Z,2.88
2022-11-05T22:17:15.894Z,3.63
2022-11-05T22:19:42.736Z,4.13
2022-11-05T22:22:09.831Z,5.60
2022-11-05T22:24:37.299Z,8.32
2022-11-05T22:27:07.413Z,38.45
2022-11-05T22:29:34.280Z,35.38
2022-11-05T22:32:00.919Z,55.35
2022-11-05T22:34:27.688Z,46.88
2022-11-05T22:36:55.223Z,21.65
2022-11-05T22:39:22.375Z,15.02
2022-11-05T22:41:50.769Z,12.75
2022-11-05T22:44:17.363Z,9.00
2022-11-05T22:46:44.429Z,4.65
2022-11-05T22:49:11.144Z,4.90
2022-11-05T22:51:39.533Z,6.90
2022-11-05T22:54:07.601Z,3.42
2022-11-05T22:56:37.738Z,5.47
2022-11-05T22:59:05.480Z,12.57
2022-11-05T23:01:32.169Z,11.73
2022-11-05T23:03:59.614Z,15.63
2022-11-05T23:06:48.546Z,15.65
2022-11-05T23:09:40.712Z,17.58
2022-11-05T23:12:19.523Z,20.85
2022-11-05T23:14:46.161Z,26.67
2022-11-05T23:17:31.273Z,28.30
2022-11-05T23:20:16.771Z,28.50
2022-11-05T23:23:02.243Z,16.85
2022-11-05T23:25:28.887Z,14.00
2022-11-05T23:27:55.557Z,14.02
2022-11-05T23:30:25.011Z,13.25
2022-11-05T23:32:53.227Z,20.90
2022-11-05T23:35:40.089Z,20.55
2022-11-05T23:38:26.092Z,15.50
2022-11-05T23:41:11.130Z,5.63
2022-11-05T23:43:57.716Z,2.65
2022-11-05T23:46:42.548Z,5.38
2022-11-05T23:49:09.417Z,1.13
2022-11-05T23:51:35.998Z,2.65
2022-11-05T23:54:02.606Z,2.58
2022-11-05T23:56:31.492Z,1.45
2022-11-05T23:58:58.193Z,2.63
